createdAt,value
2019-02-21T00:01:00.672Z,92.30
2019-02-21T00:02:13.519Z,92.50
2019-02-21T00:03:18.652Z,92.50
2019-02-21T00:04:23.800Z,92.50
2019-02-21T00:05:28.905Z,92.60
2019-02-21T00:06:33.977Z,92.60
2019-02-21T00:07:40.174Z,92.60
2019-02-21T00:08:45.374Z,92.70
2019-02-21T00:09:50.422Z,92.90
2019-02-21T00:10:55.499Z,93.20
2019-02-21T00:12:00.591Z,93.10
2019-02-21T00:13:05.704Z,93.10
2019-02-21T00:14:10.810Z,93.10
2019-02-21T00:15:15.917Z,93.10
2019-02-21T00:16:21.031Z,93.10
2019-02-21T00:17:31.560Z,92.90
2019-02-21T00:18:36.649Z,92.80
2019-02-21T00:19:41.804Z,92.50
2019-02-21T00:20:46.817Z,92.40
2019-02-21T00:21:51.860Z,92.50
2019-02-21T00:22:56.947Z,92.60
2019-02-21T00:24:01.981Z,92.50
2019-02-21T00:25:07.040Z,92.40
2019-02-21T00:26:12.128Z,92.50
2019-02-21T00:27:17.341Z,93.10
2019-02-21T00:28:23.305Z,93.50
2019-02-21T00:29:28.423Z,93.80
2019-02-21T00:30:35.427Z,93.90
2019-02-21T00:31:40.482Z,93.70
2019-02-21T00:32:45.614Z,93.80
2019-02-21T00:33:50.748Z,93.90
2019-02-21T00:34:55.925Z,93.90
2019-02-21T00:36:00.966Z,94.20
2019-02-21T00:37:06.399Z,94.70
2019-02-21T00:38:11.409Z,94.60
2019-02-21T00:39:16.518Z,94.70
2019-02-21T00:40:21.594Z,94.70
2019-02-21T00:41:26.741Z,94.50
2019-02-21T00:42:32.120Z,94.50
2019-02-21T00:43:37.253Z,94.60
2019-02-21T00:44:42.313Z,94.40
2019-02-21T00:45:47.509Z,94.10
2019-02-21T00:46:52.610Z,94.00
2019-02-21T00:47:57.736Z,94.00
2019-02-21T00:49:02.862Z,93.90
2019-02-21T00:50:08.040Z,94.00
2019-02-21T00:51:13.090Z,94.30
2019-02-21T00:52:18.308Z,94.10
2019-02-21T00:53:23.792Z,94.00
2019-02-21T00:54:28.933Z,93.80
2019-02-21T00:55:34.076Z,93.70
2019-02-21T00:56:39.124Z,93.50
2019-02-21T00:57:44.229Z,93.50
2019-02-21T00:58:49.242Z,93.50
2019-02-21T00:59:54.329Z,93.30
2019-02-21T01:00:59.367Z,93.80
2019-02-21T01:02:04.527Z,94.10
2019-02-21T01:03:09.681Z,93.90
2019-02-21T01:04:15.049Z,93.90
2019-02-21T01:05:20.424Z,93.70
2019-02-21T01:06:25.544Z,93.80
2019-02-21T01:07:30.631Z,93.50
2019-02-21T01:08:35.652Z,93.40
2019-02-21T01:09:40.699Z,93.50
2019-02-21T01:10:45.834Z,93.60
2019-02-21T01:11:50.969Z,93.60
2019-02-21T01:12:56.165Z,93.80
2019-02-21T01:14:01.188Z,93.80
2019-02-21T01:15:07.483Z,93.80
2019-02-21T01:16:12.607Z,93.80
2019-02-21T01:17:17.719Z,94.00
2019-02-21T01:18:22.746Z,94.00
2019-02-21T01:19:28.132Z,94.40
2019-02-21T01:20:33.264Z,94.50
2019-02-21T01:21:38.404Z,94.50
2019-02-21T01:22:43.500Z,94.20
2019-02-21T01:23:48.668Z,94.20
2019-02-21T01:24:53.786Z,94.40
2019-02-21T01:25:58.826Z,94.60
2019-02-21T01:27:03.940Z,94.90
2019-02-21T01:28:09.042Z,94.90
2019-02-21T01:29:14.147Z,94.90
2019-02-21T01:30:19.244Z,95.10
2019-02-21T01:31:24.279Z,95.10
2019-02-21T01:32:29.469Z,94.90
2019-02-21T01:33:34.673Z,94.80
2019-02-21T01:34:39.788Z,94.80
2019-02-21T01:35:44.908Z,94.90
2019-02-21T01:36:50.036Z,95.00
2019-02-21T01:37:55.045Z,95.10
2019-02-21T01:39:00.084Z,95.20
2019-02-21T01:40:05.645Z,95.40
2019-02-21T01:41:11.177Z,95.30
2019-02-21T01:42:16.305Z,95.10
2019-02-21T01:43:21.409Z,95.20
2019-02-21T01:44:26.586Z,95.10
2019-02-21T01:45:31.695Z,95.30
2019-02-21T01:46:36.749Z,95.20
2019-02-21T01:47:42.881Z,95.10
2019-02-21T01:48:49.137Z,95.30
2019-02-21T01:49:54.245Z,95.20
2019-02-21T01:50:59.345Z,95.10
2019-02-21T01:52:04.484Z,95.00
2019-02-21T01:53:09.521Z,94.80
2019-02-21T01:54:14.534Z,94.60
2019-02-21T01:55:19.644Z,94.40
2019-02-21T01:56:24.720Z,94.40
2019-02-21T01:57:29.761Z,94.60
2019-02-21T01:58:34.864Z,94.50
2019-02-21T01:59:39.954Z,94.30
2019-02-21T02:00:45.202Z,94.20
2019-02-21T02:01:50.349Z,94.00
2019-02-21T02:02:55.458Z,94.10
2019-02-21T02:04:00.529Z,94.30
2019-02-21T02:05:06.137Z,94.30
2019-02-21T02:06:11.243Z,94.50
2019-02-21T02:07:16.288Z,94.40
2019-02-21T02:08:21.741Z,94.50
2019-02-21T02:09:26.799Z,94.60
2019-02-21T02:10:32.013Z,95.10
2019-02-21T02:11:37.190Z,95.40
2019-02-21T02:12:42.383Z,95.80
2019-02-21T02:13:47.437Z,95.80
2019-02-21T02:14:52.893Z,95.70
2019-02-21T02:15:58.012Z,95.80
2019-02-21T02:17:04.105Z,96.00
2019-02-21T02:18:09.153Z,95.90
2019-02-21T02:19:14.271Z,95.90
2019-02-21T02:20:19.301Z,95.90
2019-02-21T02:21:24.324Z,95.90
2019-02-21T02:22:29.433Z,95.90
2019-02-21T02:23:34.574Z,95.80
2019-02-21T02:24:40.439Z,95.80
2019-02-21T02:25:45.497Z,96.00
2019-02-21T02:26:50.621Z,95.90
2019-02-21T02:27:55.855Z,95.90
2019-02-21T02:29:02.098Z,95.50
2019-02-21T02:30:07.680Z,95.30
2019-02-21T02:31:21.922Z,95.00
2019-02-21T02:32:19.941Z,94.80
2019-02-21T02:33:24.976Z,94.80
2019-02-21T02:34:30.249Z,94.70
2019-02-21T02:35:35.368Z,94.50
2019-02-21T02:36:40.679Z,94.50
2019-02-21T02:37:45.692Z,94.30
2019-02-21T02:38:50.865Z,94.10
2019-02-21T02:39:56.028Z,94.00
2019-02-21T02:41:01.130Z,93.90
2019-02-21T02:42:06.154Z,94.00
2019-02-21T02:43:11.208Z,94.20
2019-02-21T02:44:16.383Z,94.30
2019-02-21T02:45:21.405Z,94.50
2019-02-21T02:46:26.413Z,94.60
2019-02-21T02:47:31.514Z,94.70
2019-02-21T02:48:36.643Z,94.90
2019-02-21T02:49:41.734Z,95.10
2019-02-21T02:50:46.844Z,95.20
2019-02-21T02:51:51.974Z,95.20
2019-02-21T02:52:57.156Z,95.30
2019-02-21T02:54:02.204Z,95.40
2019-02-21T02:55:07.326Z,95.40
2019-02-21T02:56:12.429Z,95.40
2019-02-21T02:57:17.508Z,95.40
2019-02-21T02:58:24.636Z,95.40
2019-02-21T02:59:40.386Z,95.40
2019-02-21T03:00:36.588Z,95.70
2019-02-21T03:01:41.609Z,96.10
2019-02-21T03:02:46.723Z,96.00
2019-02-21T03:03:51.900Z,96.00
2019-02-21T03:04:56.957Z,95.90
2019-02-21T03:06:02.053Z,95.70
2019-02-21T03:07:07.476Z,95.60
2019-02-21T03:08:12.503Z,95.50
2019-02-21T03:09:17.602Z,95.20
2019-02-21T03:10:22.808Z,95.10
2019-02-21T03:11:27.903Z,94.90
2019-02-21T03:12:32.982Z,94.70
2019-02-21T03:13:38.098Z,94.40
2019-02-21T03:14:43.137Z,94.10
2019-02-21T03:15:48.296Z,93.90
2019-02-21T03:16:53.422Z,93.80
2019-02-21T03:17:58.513Z,93.70
2019-02-21T03:19:03.634Z,93.60
2019-02-21T03:20:09.163Z,93.60
2019-02-21T03:21:14.277Z,93.60
2019-02-21T03:22:19.329Z,93.50
2019-02-21T03:23:24.728Z,93.50
2019-02-21T03:24:29.887Z,93.50
2019-02-21T03:25:35.092Z,93.50
2019-02-21T03:26:40.174Z,93.50
2019-02-21T03:27:45.193Z,93.50
2019-02-21T03:28:50.296Z,93.60
2019-02-21T03:29:55.466Z,93.60
2019-02-21T03:31:00.581Z,93.70
2019-02-21T03:32:05.704Z,93.70
2019-02-21T03:33:10.730Z,93.80
2019-02-21T03:34:15.865Z,93.80
2019-02-21T03:35:20.937Z,93.80
2019-02-21T03:36:26.100Z,93.90
2019-02-21T03:37:31.198Z,93.90
2019-02-21T03:38:36.324Z,93.80
2019-02-21T03:39:41.352Z,93.70
2019-02-21T03:40:46.535Z,93.60
2019-02-21T03:41:51.567Z,93.80
2019-02-21T03:42:56.589Z,93.80
2019-02-21T03:44:01.689Z,93.90
2019-02-21T03:45:07.984Z,94.00
2019-02-21T03:46:13.037Z,94.40
2019-02-21T03:47:18.182Z,94.70
2019-02-21T03:48:23.377Z,94.80
2019-02-21T03:49:28.411Z,94.90
2019-02-21T03:50:33.461Z,94.90
2019-02-21T03:51:38.630Z,94.80
2019-02-21T03:52:45.838Z,94.50
2019-02-21T03:53:50.858Z,94.20
2019-02-21T03:54:56.035Z,93.90
2019-02-21T03:56:01.271Z,94.00
2019-02-21T03:57:06.398Z,94.40
2019-02-21T03:58:11.885Z,94.70
2019-02-21T03:59:16.908Z,94.80
2019-02-21T04:00:21.967Z,95.00
2019-02-21T04:01:27.557Z,95.00
2019-02-21T04:02:32.650Z,95.30
2019-02-21T04:03:38.076Z,95.40
2019-02-21T04:04:43.206Z,95.40
2019-02-21T04:05:48.230Z,95.50
2019-02-21T04:06:53.469Z,95.40
2019-02-21T04:07:58.628Z,95.00
2019-02-21T04:09:05.125Z,94.60
2019-02-21T04:10:10.283Z,94.50
2019-02-21T04:11:15.309Z,94.40
2019-02-21T04:12:20.417Z,94.50
2019-02-21T04:13:25.537Z,94.70
2019-02-21T04:14:30.629Z,94.70
2019-02-21T04:15:36.711Z,94.70
2019-02-21T04:16:42.973Z,94.60
2019-02-21T04:17:48.090Z,94.60
2019-02-21T04:18:53.234Z,94.60
2019-02-21T04:19:58.402Z,94.50
2019-02-21T04:21:03.486Z,94.40
2019-02-21T04:22:09.693Z,94.50
2019-02-21T04:23:14.744Z,94.40
2019-02-21T04:24:19.920Z,94.30
2019-02-21T04:25:24.948Z,94.20
2019-02-21T04:26:29.968Z,94.10
2019-02-21T04:27:35.096Z,94.30
2019-02-21T04:28:40.117Z,94.50
2019-02-21T04:29:45.182Z,94.40
2019-02-21T04:30:50.293Z,94.20
2019-02-21T04:31:55.416Z,94.00
2019-02-21T04:33:00.534Z,94.00
2019-02-21T04:34:08.125Z,94.00
2019-02-21T04:35:13.233Z,94.00
2019-02-21T04:36:18.241Z,94.10
2019-02-21T04:37:23.414Z,94.10
2019-02-21T04:38:28.595Z,94.00
2019-02-21T04:39:34.033Z,93.80
2019-02-21T04:40:39.230Z,93.60
2019-02-21T04:41:44.248Z,93.50
2019-02-21T04:42:49.329Z,93.30
2019-02-21T04:43:54.366Z,92.80
2019-02-21T04:44:59.616Z,92.60
2019-02-21T04:46:05.911Z,92.50
2019-02-21T04:47:10.941Z,92.50
2019-02-21T04:48:16.062Z,92.50
2019-02-21T04:49:21.195Z,92.50
2019-02-21T04:50:26.293Z,92.50
2019-02-21T04:51:31.399Z,92.60
2019-02-21T04:52:36.595Z,92.70
2019-02-21T04:53:41.764Z,93.00
2019-02-21T04:54:46.781Z,93.10
2019-02-21T04:55:51.890Z,93.20
2019-02-21T04:56:56.932Z,93.20
2019-02-21T04:58:02.014Z,93.40
2019-02-21T04:59:07.137Z,93.40
2019-02-21T05:00:12.708Z,93.20
2019-02-21T05:01:17.813Z,93.20
2019-02-21T05:02:28.984Z,93.10
2019-02-21T05:03:29.759Z,93.10
2019-02-21T05:04:34.867Z,93.00
2019-02-21T05:05:39.968Z,93.10
2019-02-21T05:06:45.020Z,93.20
2019-02-21T05:07:50.029Z,93.20
2019-02-21T05:08:55.066Z,93.20
2019-02-21T05:10:00.398Z,93.30
2019-02-21T05:11:05.554Z,93.10
2019-02-21T05:12:10.683Z,93.00
2019-02-21T05:13:15.829Z,93.00
2019-02-21T05:14:20.947Z,92.90
2019-02-21T05:15:25.996Z,93.00
2019-02-21T05:16:31.094Z,93.00
2019-02-21T05:17:36.196Z,93.00
2019-02-21T05:18:41.456Z,93.00
2019-02-21T05:19:46.580Z,92.90
2019-02-21T05:20:51.691Z,92.80
2019-02-21T05:21:56.752Z,92.60
2019-02-21T05:23:03.477Z,92.60
2019-02-21T05:24:08.513Z,92.80
2019-02-21T05:25:13.558Z,92.60
2019-02-21T05:26:23.494Z,92.60
2019-02-21T05:27:32.632Z,92.60
2019-02-21T05:28:37.812Z,92.60
2019-02-21T05:29:42.939Z,92.70
2019-02-21T05:30:49.329Z,92.70
2019-02-21T05:32:12.286Z,92.70
2019-02-21T05:33:35.311Z,92.70
2019-02-21T05:34:44.759Z,92.60
2019-02-21T05:35:57.270Z,92.70
2019-02-21T05:37:20.129Z,92.80
2019-02-21T05:38:50.250Z,92.90
2019-02-21T05:40:18.171Z,92.90
2019-02-21T05:41:45.625Z,93.00
2019-02-21T05:43:18.683Z,92.80
2019-02-21T05:44:35.132Z,92.90
2019-02-21T05:45:54.716Z,92.60
2019-02-21T05:47:17.680Z,92.60
2019-02-21T05:48:48.142Z,92.80
2019-02-21T05:50:18.146Z,92.80
2019-02-21T05:51:40.179Z,93.30
2019-02-21T05:52:57.358Z,93.80
2019-02-21T05:54:36.473Z,94.20
2019-02-21T05:56:06.824Z,94.50
2019-02-21T05:57:25.769Z,94.80
2019-02-21T05:58:44.878Z,95.00
2019-02-21T06:00:14.826Z,95.10
2019-02-21T06:01:31.838Z,95.00
2019-02-21T06:03:01.963Z,94.80
2019-02-21T06:04:14.786Z,94.70
2019-02-21T06:05:38.873Z,94.60
2019-02-21T06:07:03.079Z,94.60
2019-02-21T06:08:39.586Z,94.60
2019-02-21T06:09:53.884Z,94.60
2019-02-21T06:11:06.115Z,94.70
2019-02-21T06:12:39.365Z,94.70
2019-02-21T06:14:01.601Z,95.00
2019-02-21T06:15:38.178Z,95.10
2019-02-21T06:17:00.796Z,95.00
2019-02-21T06:18:23.738Z,95.00
2019-02-21T06:19:36.664Z,95.10
2019-02-21T06:20:51.304Z,95.20
2019-02-21T06:22:15.396Z,95.00
2019-02-21T06:23:42.353Z,95.00
2019-02-21T06:24:55.743Z,95.10
2019-02-21T06:26:09.250Z,94.80
2019-02-21T06:27:22.383Z,94.40
2019-02-21T06:28:34.265Z,94.20
2019-02-21T06:29:47.068Z,94.20
2019-02-21T06:30:58.454Z,93.90
2019-02-21T06:32:13.892Z,93.70
2019-02-21T06:33:10.530Z,93.60
2019-02-21T06:34:15.616Z,93.80
2019-02-21T06:35:20.741Z,93.90
2019-02-21T06:36:26.333Z,94.10
2019-02-21T06:37:31.538Z,94.10
2019-02-21T06:38:39.770Z,94.10
2019-02-21T06:39:44.809Z,94.10
2019-02-21T06:40:49.952Z,94.00
2019-02-21T06:41:59.653Z,94.00
2019-02-21T06:43:01.728Z,93.90
2019-02-21T06:44:08.584Z,93.90
2019-02-21T06:45:13.693Z,93.80
2019-02-21T06:46:18.777Z,93.70
2019-02-21T06:47:23.829Z,93.80
2019-02-21T06:48:28.909Z,93.80
2019-02-21T06:49:34.011Z,93.90
2019-02-21T06:50:39.132Z,93.80
2019-02-21T06:51:44.224Z,93.50
2019-02-21T06:52:49.344Z,93.30
2019-02-21T06:54:13.613Z,93.30
2019-02-21T06:55:20.546Z,93.30
2019-02-21T06:56:25.540Z,93.20
2019-02-21T06:57:30.650Z,93.10
2019-02-21T06:58:35.733Z,93.00
2019-02-21T06:59:43.484Z,92.90
2019-02-21T07:00:47.728Z,92.80
2019-02-21T07:01:52.845Z,92.80
2019-02-21T07:02:57.912Z,93.00
2019-02-21T07:04:03.021Z,93.20
2019-02-21T07:05:08.128Z,93.20
2019-02-21T07:06:14.640Z,93.40
2019-02-21T07:07:19.806Z,93.40
2019-02-21T07:08:25.249Z,93.20
2019-02-21T07:09:31.907Z,93.40
2019-02-21T07:10:37.049Z,93.90
2019-02-21T07:11:42.166Z,94.40
2019-02-21T07:12:47.293Z,94.20
2019-02-21T07:13:52.476Z,93.70
2019-02-21T07:14:57.671Z,93.20
2019-02-21T07:16:02.797Z,91.80
2019-02-21T07:17:08.660Z,90.40
2019-02-21T07:18:13.930Z,89.00
2019-02-21T07:19:19.056Z,87.70
2019-02-21T07:20:24.195Z,85.90
2019-02-21T07:21:29.300Z,84.50
2019-02-21T07:22:34.396Z,83.30
2019-02-21T07:23:43.423Z,81.80
2019-02-21T07:24:48.058Z,78.80
2019-02-21T07:25:59.020Z,77.10
2019-02-21T07:27:04.434Z,75.20
2019-02-21T07:28:12.509Z,73.20
2019-02-21T07:29:17.480Z,71.90
2019-02-21T07:30:23.241Z,68.90
2019-02-21T07:31:32.528Z,66.50
2019-02-21T07:32:36.518Z,64.60
2019-02-21T07:33:42.360Z,63.20
2019-02-21T07:34:47.481Z,61.60
2019-02-21T07:35:52.687Z,60.30
2019-02-21T07:36:57.813Z,58.40
2019-02-21T07:38:02.845Z,56.80
2019-02-21T07:39:17.026Z,55.80
2019-02-21T07:40:20.120Z,54.60
2019-02-21T07:41:21.777Z,53.50
2019-02-21T07:42:26.881Z,52.00
2019-02-21T07:43:32.010Z,50.20
2019-02-21T07:44:37.136Z,49.20
2019-02-21T07:45:42.240Z,48.70
2019-02-21T07:46:47.267Z,47.70
2019-02-21T07:47:52.380Z,46.30
2019-02-21T07:48:57.390Z,45.60
2019-02-21T07:50:02.458Z,44.70
2019-02-21T07:51:07.579Z,43.70
2019-02-21T07:52:12.691Z,43.20
2019-02-21T07:53:17.815Z,42.70
2019-02-21T07:54:22.951Z,42.10
2019-02-21T07:55:28.122Z,43.00
2019-02-21T07:56:41.633Z,43.50
2019-02-21T07:57:40.012Z,43.50
2019-02-21T07:58:45.114Z,44.20
2019-02-21T07:59:50.296Z,44.60
2019-02-21T08:00:55.404Z,45.30
2019-02-21T08:02:00.524Z,45.80
2019-02-21T08:03:05.633Z,46.40
2019-02-21T08:04:10.757Z,46.90
2019-02-21T08:05:15.876Z,47.40
2019-02-21T08:06:20.919Z,48.00
2019-02-21T08:07:26.459Z,48.40
2019-02-21T08:08:32.585Z,48.80
2019-02-21T08:09:38.023Z,49.40
2019-02-21T08:10:43.186Z,50.10
2019-02-21T08:11:48.284Z,50.90
2019-02-21T08:12:53.730Z,50.80
2019-02-21T08:13:58.991Z,50.20
2019-02-21T08:15:04.075Z,50.20
2019-02-21T08:16:09.340Z,50.00
2019-02-21T08:17:16.287Z,50.30
2019-02-21T08:18:21.625Z,50.20
2019-02-21T08:19:26.777Z,50.00
2019-02-21T08:20:34.685Z,49.80
2019-02-21T08:21:38.782Z,49.80
2019-02-21T08:22:44.057Z,49.70
2019-02-21T08:23:50.879Z,50.00
2019-02-21T08:24:56.588Z,50.10
2019-02-21T08:26:01.876Z,50.50
2019-02-21T08:27:07.021Z,50.50
2019-02-21T08:28:12.144Z,50.70
2019-02-21T08:29:20.634Z,51.00
2019-02-21T08:30:25.316Z,51.20
2019-02-21T08:31:30.428Z,51.40
2019-02-21T08:32:54.505Z,51.90
2019-02-21T08:34:05.849Z,53.00
2019-02-21T08:35:10.943Z,54.30
2019-02-21T08:36:16.088Z,55.10
2019-02-21T08:37:21.177Z,55.60
2019-02-21T08:38:26.299Z,56.20
2019-02-21T08:39:31.408Z,56.40
2019-02-21T08:40:36.511Z,56.10
2019-02-21T08:41:41.607Z,56.30
2019-02-21T08:42:47.884Z,55.40
2019-02-21T08:43:53.003Z,55.60
2019-02-21T08:44:59.096Z,55.40
2019-02-21T08:46:05.355Z,55.10
2019-02-21T08:47:10.589Z,54.90
2019-02-21T08:48:16.066Z,54.10
2019-02-21T08:49:21.597Z,52.00
2019-02-21T08:50:26.729Z,51.10
2019-02-21T08:51:32.132Z,50.50
2019-02-21T08:52:37.305Z,50.40
2019-02-21T08:53:42.352Z,50.40
2019-02-21T08:54:47.461Z,50.50
2019-02-21T08:55:52.607Z,49.60
2019-02-21T08:56:57.737Z,49.80
2019-02-21T08:58:02.873Z,50.20
2019-02-21T08:59:07.991Z,50.50
2019-02-21T09:00:13.441Z,49.40
2019-02-21T09:01:18.539Z,47.70
2019-02-21T09:02:23.667Z,47.00
2019-02-21T09:03:28.778Z,45.10
2019-02-21T09:04:33.792Z,44.10
2019-02-21T09:05:38.919Z,43.20
2019-02-21T09:06:44.094Z,42.70
2019-02-21T09:07:49.234Z,42.10
2019-02-21T09:08:54.284Z,41.80
2019-02-21T09:09:59.406Z,41.60
2019-02-21T09:11:04.513Z,41.60
2019-02-21T09:12:09.623Z,41.60
2019-02-21T09:13:14.665Z,41.80
2019-02-21T09:14:19.760Z,42.00
2019-02-21T09:15:24.901Z,42.10
2019-02-21T09:16:29.993Z,42.60
2019-02-21T09:17:35.145Z,42.80
2019-02-21T09:18:40.194Z,42.70
2019-02-21T09:19:45.304Z,43.60
2019-02-21T09:20:50.440Z,44.10
2019-02-21T09:21:55.531Z,44.50
2019-02-21T09:23:00.684Z,45.00
2019-02-21T09:24:05.892Z,45.30
2019-02-21T09:25:12.160Z,45.60
2019-02-21T09:26:17.251Z,46.10
2019-02-21T09:27:22.295Z,46.20
2019-02-21T09:28:27.476Z,46.10
2019-02-21T09:29:32.585Z,46.30
2019-02-21T09:30:37.609Z,46.80
2019-02-21T09:31:42.740Z,47.00
2019-02-21T09:32:50.535Z,46.90
2019-02-21T09:33:55.658Z,46.40
2019-02-21T09:35:00.704Z,46.00
2019-02-21T09:36:07.237Z,46.20
2019-02-21T09:37:12.340Z,44.70
2019-02-21T09:38:17.397Z,43.70
2019-02-21T09:39:22.499Z,43.10
2019-02-21T09:40:28.475Z,42.90
2019-02-21T09:41:33.912Z,42.50
2019-02-21T09:42:38.961Z,41.90
2019-02-21T09:43:44.093Z,40.90
2019-02-21T09:44:49.860Z,39.90
2019-02-21T09:45:55.117Z,39.10
2019-02-21T09:47:00.208Z,38.00
2019-02-21T09:48:05.488Z,37.10
2019-02-21T09:49:10.705Z,35.90
2019-02-21T09:50:15.734Z,34.30
2019-02-21T09:51:21.186Z,33.40
2019-02-21T09:52:26.389Z,33.50
2019-02-21T09:53:31.608Z,32.80
2019-02-21T09:54:36.707Z,31.70
2019-02-21T09:55:41.827Z,31.40
2019-02-21T09:56:52.726Z,30.90
2019-02-21T09:57:53.748Z,30.00
2019-02-21T09:58:58.826Z,29.70
2019-02-21T10:00:04.105Z,29.50
2019-02-21T10:01:09.598Z,28.70
2019-02-21T10:02:14.768Z,28.30
2019-02-21T10:03:19.815Z,28.00
2019-02-21T10:04:32.185Z,27.60
2019-02-21T10:05:32.606Z,27.30
2019-02-21T10:06:37.937Z,27.10
2019-02-21T10:07:43.015Z,26.90
2019-02-21T10:08:48.124Z,26.80
2019-02-21T10:09:53.176Z,26.80
2019-02-21T10:11:00.934Z,26.80
2019-02-21T10:12:05.026Z,26.50
2019-02-21T10:13:12.946Z,26.70
2019-02-21T10:14:17.013Z,26.30
2019-02-21T10:15:22.082Z,26.30
2019-02-21T10:16:27.118Z,26.70
2019-02-21T10:17:32.294Z,27.50
2019-02-21T10:18:37.377Z,27.70
2019-02-21T10:19:42.477Z,27.90
2019-02-21T10:20:47.672Z,28.00
2019-02-21T10:21:52.717Z,28.30
2019-02-21T10:22:57.844Z,28.30
2019-02-21T10:24:02.876Z,28.60
2019-02-21T10:25:11.512Z,28.80
2019-02-21T10:26:16.634Z,29.10
2019-02-21T10:27:21.745Z,29.50
2019-02-21T10:28:26.884Z,29.30
2019-02-21T10:29:32.046Z,29.20
2019-02-21T10:30:37.172Z,28.60
2019-02-21T10:31:42.934Z,28.60
2019-02-21T10:32:47.957Z,28.50
2019-02-21T10:33:52.984Z,28.30
2019-02-21T10:34:58.093Z,28.10
2019-02-21T10:36:03.254Z,28.20
2019-02-21T10:37:08.388Z,28.30
2019-02-21T10:38:13.479Z,28.40
2019-02-21T10:39:18.581Z,28.60
2019-02-21T10:40:24.554Z,28.40
2019-02-21T10:41:29.672Z,29.20
2019-02-21T10:42:34.774Z,30.00
2019-02-21T10:43:39.925Z,31.00
2019-02-21T10:44:45.062Z,30.70
2019-02-21T10:45:50.196Z,30.90
2019-02-21T10:46:55.340Z,31.20
2019-02-21T10:48:00.425Z,31.20
2019-02-21T10:49:05.452Z,31.10
2019-02-21T10:50:15.691Z,31.30
2019-02-21T10:51:21.872Z,31.30
2019-02-21T10:52:26.947Z,31.80
2019-02-21T10:53:32.149Z,32.40
2019-02-21T10:54:37.282Z,32.70
2019-02-21T10:55:42.412Z,33.10
2019-02-21T10:56:47.650Z,33.60
2019-02-21T10:57:52.734Z,34.50
2019-02-21T10:58:57.865Z,35.00
2019-02-21T11:00:03.003Z,35.20
2019-02-21T11:01:09.681Z,34.70
2019-02-21T11:02:14.777Z,35.00
2019-02-21T11:03:19.861Z,35.30
2019-02-21T11:04:25.064Z,35.80
2019-02-21T11:05:30.210Z,36.10
2019-02-21T11:06:35.359Z,36.60
2019-02-21T11:07:40.472Z,37.10
2019-02-21T11:08:45.570Z,37.50
2019-02-21T11:09:50.828Z,37.90
2019-02-21T11:10:55.881Z,38.10
2019-02-21T11:12:00.999Z,39.30
2019-02-21T11:13:07.051Z,39.30
2019-02-21T11:14:12.279Z,40.00
2019-02-21T11:15:17.545Z,40.60
2019-02-21T11:16:22.943Z,40.90
2019-02-21T11:17:28.073Z,40.90
2019-02-21T11:18:33.193Z,41.00
2019-02-21T11:19:38.230Z,41.20
2019-02-21T11:20:43.369Z,41.60
2019-02-21T11:21:48.669Z,41.80
2019-02-21T11:22:53.988Z,42.30
2019-02-21T11:23:59.106Z,43.20
2019-02-21T11:25:04.238Z,42.50
2019-02-21T11:26:09.346Z,42.50
2019-02-21T11:27:14.418Z,42.60
2019-02-21T11:28:19.532Z,42.40
2019-02-21T11:29:24.577Z,42.40
2019-02-21T11:30:29.687Z,42.50
2019-02-21T11:31:34.741Z,42.60
2019-02-21T11:32:39.865Z,42.60
2019-02-21T11:33:44.989Z,42.60
2019-02-21T11:34:50.139Z,42.40
2019-02-21T11:35:55.366Z,42.30
2019-02-21T11:37:00.493Z,42.50
2019-02-21T11:38:05.609Z,42.30
2019-02-21T11:39:10.737Z,42.40
2019-02-21T11:40:16.160Z,42.40
2019-02-21T11:41:21.199Z,42.10
2019-02-21T11:42:26.387Z,42.10
2019-02-21T11:43:31.635Z,42.10
2019-02-21T11:44:36.752Z,42.10
2019-02-21T11:45:53.167Z,42.00
2019-02-21T11:46:48.658Z,41.90
2019-02-21T11:47:53.720Z,42.60
2019-02-21T11:48:58.813Z,42.10
2019-02-21T11:50:03.879Z,41.90
2019-02-21T11:51:09.028Z,42.20
2019-02-21T11:52:14.124Z,42.50
2019-02-21T11:53:19.237Z,42.70
2019-02-21T11:54:27.231Z,42.90
2019-02-21T11:55:31.066Z,43.40
2019-02-21T11:56:36.198Z,43.60
2019-02-21T11:57:41.324Z,43.80
2019-02-21T11:58:46.497Z,44.20
2019-02-21T11:59:51.620Z,44.50
2019-02-21T12:00:56.735Z,44.90
2019-02-21T12:02:01.863Z,45.60
2019-02-21T12:03:10.022Z,45.90
2019-02-21T12:04:15.090Z,46.20
2019-02-21T12:05:30.416Z,45.90
2019-02-21T12:06:26.984Z,45.90
2019-02-21T12:07:32.140Z,45.70
2019-02-21T12:08:37.280Z,46.10
2019-02-21T12:09:42.405Z,46.20
2019-02-21T12:10:50.945Z,46.10
2019-02-21T12:11:56.057Z,46.10
2019-02-21T12:13:01.157Z,46.10
2019-02-21T12:14:11.571Z,45.90
2019-02-21T12:15:17.108Z,46.20
2019-02-21T12:16:22.285Z,46.20
2019-02-21T12:17:27.403Z,46.90
2019-02-21T12:18:32.577Z,46.40
2019-02-21T12:19:37.720Z,46.20
2019-02-21T12:20:42.832Z,46.30
2019-02-21T12:21:58.350Z,46.60
2019-02-21T12:22:54.819Z,47.10
2019-02-21T12:24:03.152Z,47.50
2019-02-21T12:25:10.235Z,47.50
2019-02-21T12:26:16.342Z,47.50
2019-02-21T12:27:21.469Z,47.80
2019-02-21T12:28:26.686Z,48.00
2019-02-21T12:29:31.825Z,48.30
2019-02-21T12:30:36.930Z,48.40
2019-02-21T12:31:42.059Z,48.40
2019-02-21T12:32:47.105Z,48.40
2019-02-21T12:33:52.221Z,48.10
2019-02-21T12:34:58.469Z,48.30
2019-02-21T12:36:03.627Z,48.30
2019-02-21T12:37:08.719Z,48.70
2019-02-21T12:38:13.813Z,47.80
2019-02-21T12:39:18.888Z,47.60
2019-02-21T12:40:24.089Z,48.00
2019-02-21T12:41:29.210Z,47.90
2019-02-21T12:42:34.333Z,47.70
2019-02-21T12:43:40.532Z,47.70
2019-02-21T12:44:47.797Z,47.90
2019-02-21T12:45:59.759Z,47.90
2019-02-21T12:47:04.876Z,47.80
2019-02-21T12:48:10.060Z,47.40
2019-02-21T12:49:15.293Z,47.30
2019-02-21T12:50:20.349Z,47.30
2019-02-21T12:51:25.460Z,47.30
2019-02-21T12:52:30.544Z,47.60
2019-02-21T12:53:35.660Z,47.50
2019-02-21T12:54:40.731Z,47.60
2019-02-21T12:55:45.872Z,47.50
2019-02-21T12:56:51.038Z,47.90
2019-02-21T12:57:56.189Z,48.00
2019-02-21T12:59:01.248Z,47.90
2019-02-21T13:00:08.361Z,47.40
2019-02-21T13:01:13.621Z,48.00
2019-02-21T13:02:18.726Z,47.40
2019-02-21T13:03:23.821Z,47.40
2019-02-21T13:04:28.873Z,47.50
2019-02-21T13:05:41.046Z,47.50
2019-02-21T13:06:40.710Z,47.70
2019-02-21T13:07:45.822Z,48.00
2019-02-21T13:08:51.076Z,48.00
2019-02-21T13:09:56.253Z,48.00
2019-02-21T13:11:01.384Z,47.80
2019-02-21T13:12:06.523Z,47.90
2019-02-21T13:13:11.689Z,47.70
2019-02-21T13:14:16.819Z,47.80
2019-02-21T13:15:22.023Z,47.80
2019-02-21T13:16:27.113Z,47.90
2019-02-21T13:17:32.194Z,48.20
2019-02-21T13:18:37.510Z,48.50
2019-02-21T13:19:42.677Z,48.50
2019-02-21T13:20:47.777Z,48.40
2019-02-21T13:21:52.841Z,48.70
2019-02-21T13:22:57.963Z,48.50
2019-02-21T13:24:03.073Z,48.10
2019-02-21T13:25:09.171Z,48.30
2019-02-21T13:26:14.220Z,48.20
2019-02-21T13:27:19.344Z,48.50
2019-02-21T13:28:24.450Z,48.40
2019-02-21T13:29:29.569Z,48.10
2019-02-21T13:30:34.577Z,48.10
2019-02-21T13:31:39.709Z,49.00
2019-02-21T13:32:45.164Z,48.90
2019-02-21T13:33:50.344Z,49.00
2019-02-21T13:34:55.473Z,49.00
2019-02-21T13:36:00.589Z,49.30
2019-02-21T13:37:05.685Z,49.30
2019-02-21T13:38:10.815Z,49.20
2019-02-21T13:39:15.867Z,48.90
2019-02-21T13:40:21.503Z,49.40
2019-02-21T13:41:26.668Z,49.90
2019-02-21T13:42:31.848Z,50.50
2019-02-21T13:43:36.960Z,50.90
2019-02-21T13:44:42.078Z,50.50
2019-02-21T13:45:47.170Z,50.50
2019-02-21T13:46:52.213Z,50.80
2019-02-21T13:47:57.288Z,51.00
2019-02-21T13:49:02.421Z,51.20
2019-02-21T13:50:10.432Z,51.20
2019-02-21T13:51:15.542Z,51.00
2019-02-21T13:52:20.668Z,50.90
2019-02-21T13:53:25.717Z,50.90
2019-02-21T13:54:30.762Z,50.90
2019-02-21T13:55:35.888Z,51.30
2019-02-21T13:56:40.999Z,51.30
2019-02-21T13:57:46.199Z,51.50
2019-02-21T13:58:51.338Z,51.80
2019-02-21T13:59:56.378Z,51.80
2019-02-21T14:01:01.523Z,52.00
2019-02-21T14:02:07.712Z,52.10
2019-02-21T14:03:12.821Z,52.20
2019-02-21T14:04:17.935Z,52.30
2019-02-21T14:05:23.065Z,52.00
2019-02-21T14:06:28.158Z,51.80
2019-02-21T14:07:33.297Z,52.00
2019-02-21T14:08:38.334Z,52.00
2019-02-21T14:09:43.377Z,52.00
2019-02-21T14:10:50.867Z,52.10
2019-02-21T14:11:56.234Z,52.40
2019-02-21T14:13:01.376Z,52.20
2019-02-21T14:14:06.479Z,52.00
2019-02-21T14:15:14.224Z,51.90